sensor_id;sensor_type;location;lat;lon;timestamp;pressure;altitude;pressure_sealevel;temperature;humidity
49463;BME280;35357;51.722;0.500;2022-09-29T00:00:50;99744.72;;;9.53;72.58
49463;BME280;35357;51.722;0.500;2022-09-29T00:03:19;99742.21;;;9.54;72.51
49463;BME280;35357;51.722;0.500;2022-09-29T00:05:47;99740.93;;;9.02;72.51
49463;BME280;35357;51.722;0.500;2022-09-29T00:08:15;99739.10;;;9.46;72.53
49463;BME280;35357;51.722;0.500;2022-09-29T00:10:44;99737.93;;;8.92;72.83
49463;BME280;35357;51.722;0.500;2022-09-29T00:13:11;99737.56;;;8.89;72.28
49463;BME280;35357;51.722;0.500;2022-09-29T00:15:39;99741.21;;;9.20;72.36
49463;BME280;35357;51.722;0.500;2022-09-29T00:18:07;99741.85;;;8.66;72.64
49463;BME280;35357;51.722;0.500;2022-09-29T00:20:35;99739.67;;;9.07;72.83
49463;BME280;35357;51.722;0.500;2022-09-29T00:23:02;99736.90;;;9.07;72.79
49463;BME280;35357;51.722;0.500;2022-09-29T00:25:29;99739.31;;;8.96;72.66
49463;BME280;35357;51.722;0.500;2022-09-29T00:27:56;99735.96;;;9.32;72.66
49463;BME280;35357;51.722;0.500;2022-09-29T00:30:24;99734.43;;;8.84;72.64
49463;BME280;35357;51.722;0.500;2022-09-29T00:32:51;99733.78;;;8.57;72.60
49463;BME280;35357;51.722;0.500;2022-09-29T00:35:18;99735.42;;;8.78;72.62
49463;BME280;35357;51.722;0.500;2022-09-29T00:37:44;99738.17;;;8.76;72.52
49463;BME280;35357;51.722;0.500;2022-09-29T00:40:12;99740.44;;;8.73;72.47
49463;BME280;35357;51.722;0.500;2022-09-29T00:42:39;99739.56;;;8.93;72.47
49463;BME280;35357;51.722;0.500;2022-09-29T00:45:17;99741.67;;;8.31;72.63
49463;BME280;35357;51.722;0.500;2022-09-29T00:47:49;99741.52;;;8.60;72.62
49463;BME280;35357;51.722;0.500;2022-09-29T00:50:23;99741.06;;;8.78;72.48
49463;BME280;35357;51.722;0.500;2022-09-29T00:52:55;99740.00;;;8.72;72.53
49463;BME280;35357;51.722;0.500;2022-09-29T00:55:27;99733.24;;;8.40;72.35
49463;BME280;35357;51.722;0.500;2022-09-29T00:58:00;99733.28;;;8.63;72.67
49463;BME280;35357;51.722;0.500;2022-09-29T01:00:28;99730.11;;;8.58;72.43
49463;BME280;35357;51.722;0.500;2022-09-29T01:02:59;99730.07;;;8.44;72.50
49463;BME280;35357;51.722;0.500;2022-09-29T01:05:30;99728.31;;;8.22;72.66
49463;BME280;35357;51.722;0.500;2022-09-29T01:08:05;99727.99;;;8.54;73.03
49463;BME280;35357;51.722;0.500;2022-09-29T01:10:36;99731.42;;;8.01;73.88
49463;BME280;35357;51.722;0.500;2022-09-29T01:13:04;99728.76;;;8.02;74.77
49463;BME280;35357;51.722;0.500;2022-09-29T01:15:31;99730.13;;;8.01;74.11
49463;BME280;35357;51.722;0.500;2022-09-29T01:17:59;99728.72;;;8.15;73.47
49463;BME280;35357;51.722;0.500;2022-09-29T01:20:28;99730.44;;;8.25;73.75
49463;BME280;35357;51.722;0.500;2022-09-29T01:25:39;99725.85;;;8.10;74.76
49463;BME280;35357;51.722;0.500;2022-09-29T01:28:31;99719.95;;;7.90;73.68
49463;BME280;35357;51.722;0.500;2022-09-29T01:31:14;99716.93;;;8.34;73.08
49463;BME280;35357;51.722;0.500;2022-09-29T01:33:46;99719.93;;;8.00;73.60
49463;BME280;35357;51.722;0.500;2022-09-29T01:36:25;99720.44;;;7.97;73.49
49463;BME280;35357;51.722;0.500;2022-09-29T01:39:09;99718.54;;;7.82;73.63
49463;BME280;35357;51.722;0.500;2022-09-29T01:41:43;99716.63;;;8.09;73.20
49463;BME280;35357;51.722;0.500;2022-09-29T01:44:20;99720.92;;;8.01;73.21
49463;BME280;35357;51.722;0.500;2022-09-29T01:46:52;99721.68;;;7.72;73.27
49463;BME280;35357;51.722;0.500;2022-09-29T01:49:24;99721.68;;;7.91;73.25
49463;BME280;35357;51.722;0.500;2022-09-29T01:51:55;99720.98;;;7.93;73.10
49463;BME280;35357;51.722;0.500;2022-09-29T01:54:31;99723.24;;;7.87;73.07
49463;BME280;35357;51.722;0.500;2022-09-29T01:57:06;99722.68;;;7.85;73.07
49463;BME280;35357;51.722;0.500;2022-09-29T01:59:42;99721.70;;;7.55;73.03
49463;BME280;35357;51.722;0.500;2022-09-29T02:02:12;99721.40;;;7.85;72.84
49463;BME280;35357;51.722;0.500;2022-09-29T02:04:45;99721.43;;;7.84;72.89
49463;BME280;35357;51.722;0.500;2022-09-29T02:07:19;99721.22;;;7.77;72.87
49463;BME280;35357;51.722;0.500;2022-09-29T02:09:52;99719.76;;;7.71;72.95
49463;BME280;35357;51.722;0.500;2022-09-29T02:12:26;99718.67;;;7.70;72.96
49463;BME280;35357;51.722;0.500;2022-09-29T02:14:57;99716.71;;;7.55;72.70
49463;BME280;35357;51.722;0.500;2022-09-29T02:17:30;99714.00;;;7.96;72.69
49463;BME280;35357;51.722;0.500;2022-09-29T02:20:00;99712.55;;;7.69;72.52
49463;BME280;35357;51.722;0.500;2022-09-29T02:22:28;99713.31;;;7.57;72.71
49463;BME280;35357;51.722;0.500;2022-09-29T02:24:58;99711.84;;;7.52;72.88
49463;BME280;35357;51.722;0.500;2022-09-29T02:27:27;99707.28;;;7.57;72.67
49463;BME280;35357;51.722;0.500;2022-09-29T02:29:54;99706.23;;;7.49;72.77
49463;BME280;35357;51.722;0.500;2022-09-29T02:32:21;99709.24;;;7.43;72.95
49463;BME280;35357;51.722;0.500;2022-09-29T02:34:49;99706.90;;;7.41;72.77
49463;BME280;35357;51.722;0.500;2022-09-29T02:37:32;99707.93;;;7.36;72.52
49463;BME280;35357;51.722;0.500;2022-09-29T02:40:13;99710.26;;;7.01;73.73
49463;BME280;35357;51.722;0.500;2022-09-29T02:42:51;99713.59;;;7.15;73.74
49463;BME280;35357;51.722;0.500;2022-09-29T02:45:33;99712.46;;;7.24;73.90
49463;BME280;35357;51.722;0.500;2022-09-29T02:48:20;99714.74;;;6.49;74.43
49463;BME280;35357;51.722;0.500;2022-09-29T02:51:00;99712.75;;;7.23;74.21
49463;BME280;35357;51.722;0.500;2022-09-29T02:53:43;99714.87;;;7.26;73.85
49463;BME280;35357;51.722;0.500;2022-09-29T02:56:19;99717.18;;;7.02;73.69
49463;BME280;35357;51.722;0.500;2022-09-29T02:58:52;99716.48;;;7.04;73.34
49463;BME280;35357;51.722;0.500;2022-09-29T03:01:23;99715.75;;;6.96;73.23
49463;BME280;35357;51.722;0.500;2022-09-29T03:03:50;99715.05;;;7.11;73.07
49463;BME280;35357;51.722;0.500;2022-09-29T03:06:18;99711.05;;;7.26;73.20
49463;BME280;35357;51.722;0.500;2022-09-29T03:08:45;99712.12;;;7.31;73.20
49463;BME280;35357;51.722;0.500;2022-09-29T03:11:12;99712.42;;;7.00;73.35
49463;BME280;35357;51.722;0.500;2022-09-29T03:13:39;99713.78;;;7.19;73.53
49463;BME280;35357;51.722;0.500;2022-09-29T03:16:06;99714.59;;;7.20;73.41
49463;BME280;35357;51.722;0.500;2022-09-29T03:18:34;99715.12;;;7.25;73.03
49463;BME280;35357;51.722;0.500;2022-09-29T03:21:01;99716.69;;;7.00;72.89
49463;BME280;35357;51.722;0.500;2022-09-29T03:23:28;99718.70;;;7.28;72.90
49463;BME280;35357;51.722;0.500;2022-09-29T03:25:55;99719.18;;;6.98;72.84
49463;BME280;35357;51.722;0.500;2022-09-29T03:28:22;99721.11;;;7.10;72.82
49463;BME280;35357;51.722;0.500;2022-09-29T03:30:49;99720.76;;;6.98;72.44
49463;BME280;35357;51.722;0.500;2022-09-29T03:33:16;99722.03;;;7.08;72.65
49463;BME280;35357;51.722;0.500;2022-09-29T03:35:43;99722.54;;;6.72;72.79
49463;BME280;35357;51.722;0.500;2022-09-29T03:38:10;99722.35;;;6.92;72.54
49463;BME280;35357;51.722;0.500;2022-09-29T03:40:38;99724.71;;;6.40;73.54
49463;BME280;35357;51.722;0.500;2022-09-29T03:43:05;99724.78;;;7.17;72.59
49463;BME280;35357;51.722;0.500;2022-09-29T03:45:32;99724.76;;;6.92;73.45
49463;BME280;35357;51.722;0.500;2022-09-29T03:48:00;99726.75;;;6.57;73.80
49463;BME280;35357;51.722;0.500;2022-09-29T03:50:27;99730.75;;;6.89;73.78
49463;BME280;35357;51.722;0.500;2022-09-29T03:52:54;99731.50;;;6.89;73.89
49463;BME280;35357;51.722;0.500;2022-09-29T03:55:21;99733.41;;;6.94;73.73
49463;BME280;35357;51.722;0.500;2022-09-29T03:57:48;99734.53;;;6.68;73.65
49463;BME280;35357;51.722;0.500;2022-09-29T04:00:15;99740.28;;;7.12;73.88
49463;BME280;35357;51.722;0.500;2022-09-29T04:02:42;99743.91;;;6.73;73.62
49463;BME280;35357;51.722;0.500;2022-09-29T04:05:09;99746.93;;;7.10;73.32
49463;BME280;35357;51.722;0.500;2022-09-29T04:07:37;99749.97;;;7.34;73.52
49463;BME280;35357;51.722;0.500;2022-09-29T04:10:04;99750.42;;;7.08;73.12
49463;BME280;35357;51.722;0.500;2022-09-29T04:12:31;99756.49;;;6.98;73.34
49463;BME280;35357;51.722;0.500;2022-09-29T04:14:59;99758.74;;;7.31;73.36
49463;BME280;35357;51.722;0.500;2022-09-29T04:17:26;99757.62;;;7.62;73.29
49463;BME280;35357;51.722;0.500;2022-09-29T04:19:53;99757.74;;;7.02;73.58
49463;BME280;35357;51.722;0.500;2022-09-29T04:22:20;99761.17;;;7.20;73.33
49463;BME280;35357;51.722;0.500;2022-09-29T04:24:47;99766.26;;;7.12;73.43
49463;BME280;35357;51.722;0.500;2022-09-29T04:27:15;99764.24;;;7.20;73.31
49463;BME280;35357;51.722;0.500;2022-09-29T04:29:43;99768.63;;;7.69;73.20
49463;BME280;35357;51.722;0.500;2022-09-29T04:32:10;99770.12;;;7.19;73.16
49463;BME280;35357;51.722;0.500;2022-09-29T04:34:38;99769.84;;;7.17;72.95
49463;BME280;35357;51.722;0.500;2022-09-29T04:37:07;99773.35;;;7.27;72.74
49463;BME280;35357;51.722;0.500;2022-09-29T04:39:33;99776.06;;;7.25;72.72
49463;BME280;35357;51.722;0.500;2022-09-29T04:42:00;99780.46;;;7.23;72.64
49463;BME280;35357;51.722;0.500;2022-09-29T04:44:27;99782.95;;;7.25;72.42
49463;BME280;35357;51.722;0.500;2022-09-29T04:46:54;99786.81;;;7.23;72.39
49463;BME280;35357;51.722;0.500;2022-09-29T04:49:22;99786.40;;;7.18;72.23
49463;BME280;35357;51.722;0.500;2022-09-29T04:51:49;99788.89;;;7.11;72.35
49463;BME280;35357;51.722;0.500;2022-09-29T04:54:16;99790.62;;;7.30;72.34
49463;BME280;35357;51.722;0.500;2022-09-29T04:56:43;99787.76;;;7.12;72.02
49463;BME280;35357;51.722;0.500;2022-09-29T04:59:10;99789.89;;;7.09;71.93
49463;BME280;35357;51.722;0.500;2022-09-29T05:01:37;99795.10;;;7.10;71.71
49463;BME280;35357;51.722;0.500;2022-09-29T05:04:04;99794.13;;;7.13;71.21
49463;BME280;35357;51.722;0.500;2022-09-29T05:06:30;99798.94;;;7.28;71.31
49463;BME280;35357;51.722;0.500;2022-09-29T05:08:59;99800.97;;;7.40;71.79
49463;BME280;35357;51.722;0.500;2022-09-29T05:11:26;99803.67;;;7.36;71.99
49463;BME280;35357;51.722;0.500;2022-09-29T05:13:53;99807.39;;;6.91;72.69
49463;BME280;35357;51.722;0.500;2022-09-29T05:16:20;99807.82;;;6.75;73.44
49463;BME280;35357;51.722;0.500;2022-09-29T05:18:47;99811.09;;;6.78;73.18
49463;BME280;35357;51.722;0.500;2022-09-29T05:21:14;99811.08;;;6.88;73.06
49463;BME280;35357;51.722;0.500;2022-09-29T05:23:41;99815.45;;;6.85;73.05
49463;BME280;35357;51.722;0.500;2022-09-29T05:26:10;99813.08;;;6.99;73.18
49463;BME280;35357;51.722;0.500;2022-09-29T05:28:41;99815.84;;;6.98;73.13
49463;BME280;35357;51.722;0.500;2022-09-29T05:31:09;99814.65;;;6.87;72.42
49463;BME280;35357;51.722;0.500;2022-09-29T05:33:37;99818.75;;;7.05;72.51
49463;BME280;35357;51.722;0.500;2022-09-29T05:36:05;99822.47;;;6.68;72.94
49463;BME280;35357;51.722;0.500;2022-09-29T05:38:32;99828.69;;;6.92;72.77
49463;BME280;35357;51.722;0.500;2022-09-29T05:41:03;99829.00;;;6.40;72.67
49463;BME280;35357;51.722;0.500;2022-09-29T05:43:30;99837.59;;;6.69;72.92
49463;BME280;35357;51.722;0.500;2022-09-29T05:45:59;99837.99;;;6.70;72.65
49463;BME280;35357;51.722;0.500;2022-09-29T05:48:27;99839.58;;;6.77;72.46
49463;BME280;35357;51.722;0.500;2022-09-29T05:50:55;99836.15;;;6.79;72.33
49463;BME280;35357;51.722;0.500;2022-09-29T05:53:22;99837.62;;;7.03;71.89
49463;BME280;35357;51.722;0.500;2022-09-29T05:55:50;99836.65;;;6.83;72.03
49463;BME280;35357;51.722;0.500;2022-09-29T05:58:18;99836.32;;;6.99;72.09
49463;BME280;35357;51.722;0.500;2022-09-29T06:00:44;99837.66;;;6.99;72.09
49463;BME280;35357;51.722;0.500;2022-09-29T06:03:11;99841.40;;;6.85;71.98
49463;BME280;35357;51.722;0.500;2022-09-29T06:05:39;99841.49;;;6.83;72.02
49463;BME280;35357;51.722;0.500;2022-09-29T06:08:06;99840.59;;;6.96;72.35
49463;BME280;35357;51.722;0.500;2022-09-29T06:10:34;99837.94;;;7.03;72.39
49463;BME280;35357;51.722;0.500;2022-09-29T06:13:01;99837.97;;;6.45;72.39
49463;BME280;35357;51.722;0.500;2022-09-29T06:15:27;99839.56;;;6.76;72.59
49463;BME280;35357;51.722;0.500;2022-09-29T06:17:56;99842.08;;;7.09;72.36
49463;BME280;35357;51.722;0.500;2022-09-29T06:20:23;99843.59;;;6.78;72.43
49463;BME280;35357;51.722;0.500;2022-09-29T06:22:52;99851.30;;;6.81;72.61
49463;BME280;35357;51.722;0.500;2022-09-29T06:25:20;99855.30;;;6.78;72.94
49463;BME280;35357;51.722;0.500;2022-09-29T06:27:47;99855.60;;;7.05;72.89
49463;BME280;35357;51.722;0.500;2022-09-29T06:30:15;99859.31;;;6.40;73.52
49463;BME280;35357;51.722;0.500;2022-09-29T06:32:42;99865.66;;;6.76;73.59
49463;BME280;35357;51.722;0.500;2022-09-29T06:35:09;99868.20;;;6.83;73.69
49463;BME280;35357;51.722;0.500;2022-09-29T06:37:38;99872.28;;;7.02;74.15
49463;BME280;35357;51.722;0.500;2022-09-29T06:40:09;99869.58;;;6.85;74.11
49463;BME280;35357;51.722;0.500;2022-09-29T06:42:37;99873.52;;;7.12;74.24
49463;BME280;35357;51.722;0.500;2022-09-29T06:45:04;99875.51;;;6.96;74.26
49463;BME280;35357;51.722;0.500;2022-09-29T06:47:32;99880.67;;;7.02;74.33
49463;BME280;35357;51.722;0.500;2022-09-29T06:50:00;99883.07;;;6.79;74.52
49463;BME280;35357;51.722;0.500;2022-09-29T06:52:27;99885.55;;;7.13;74.66
49463;BME280;35357;51.722;0.500;2022-09-29T06:54:54;99884.93;;;7.44;74.90
49463;BME280;35357;51.722;0.500;2022-09-29T06:57:22;99887.34;;;7.59;75.24
49463;BME280;35357;51.722;0.500;2022-09-29T06:59:49;99894.07;;;7.46;75.37
49463;BME280;35357;51.722;0.500;2022-09-29T07:02:16;99893.01;;;7.34;75.40
49463;BME280;35357;51.722;0.500;2022-09-29T07:04:44;99891.71;;;7.33;75.46
49463;BME280;35357;51.722;0.500;2022-09-29T07:07:11;99893.43;;;7.43;75.71
49463;BME280;35357;51.722;0.500;2022-09-29T07:09:38;99895.19;;;7.57;75.63
49463;BME280;35357;51.722;0.500;2022-09-29T07:12:05;99893.40;;;7.57;75.97
49463;BME280;35357;51.722;0.500;2022-09-29T07:14:33;99893.67;;;7.63;76.21
49463;BME280;35357;51.722;0.500;2022-09-29T07:17:00;99895.73;;;7.75;75.97
49463;BME280;35357;51.722;0.500;2022-09-29T07:19:27;99897.86;;;7.80;76.24
49463;BME280;35357;51.722;0.500;2022-09-29T07:21:54;99898.45;;;7.81;76.33
49463;BME280;35357;51.722;0.500;2022-09-29T07:24:21;99900.43;;;7.83;76.75
49463;BME280;35357;51.722;0.500;2022-09-29T07:26:48;99897.72;;;7.75;78.61
49463;BME280;35357;51.722;0.500;2022-09-29T07:29:15;99895.38;;;8.02;77.38
49463;BME280;35357;51.722;0.500;2022-09-29T07:31:43;99895.93;;;7.87;77.78
49463;BME280;35357;51.722;0.500;2022-09-29T07:34:10;99900.82;;;8.07;77.50
49463;BME280;35357;51.722;0.500;2022-09-29T07:36:37;99901.42;;;8.54;77.31
49463;BME280;35357;51.722;0.500;2022-09-29T07:39:04;99903.18;;;8.19;77.68
49463;BME280;35357;51.722;0.500;2022-09-29T07:41:32;99906.85;;;8.76;77.31
49463;BME280;35357;51.722;0.500;2022-09-29T07:43:59;99910.54;;;8.76;77.14
49463;BME280;35357;51.722;0.500;2022-09-29T07:46:26;99914.41;;;8.52;77.07
49463;BME280;35357;51.722;0.500;2022-09-29T07:48:53;99914.55;;;8.86;77.12
49463;BME280;35357;51.722;0.500;2022-09-29T07:51:21;99917.30;;;8.95;77.15
49463;BME280;35357;51.722;0.500;2022-09-29T07:53:48;99919.83;;;9.22;76.83
49463;BME280;35357;51.722;0.500;2022-09-29T07:56:17;99923.49;;;9.20;75.95
49463;BME280;35357;51.722;0.500;2022-09-29T07:58:45;99927.29;;;9.24;75.63
49463;BME280;35357;51.722;0.500;2022-09-29T08:01:14;99925.74;;;9.66;75.77
49463;BME280;35357;51.722;0.500;2022-09-29T08:03:43;99925.98;;;9.72;76.13
49463;BME280;35357;51.722;0.500;2022-09-29T08:06:10;99928.94;;;9.89;75.88
49463;BME280;35357;51.722;0.500;2022-09-29T08:08:39;99934.08;;;9.92;77.09
49463;BME280;35357;51.722;0.500;2022-09-29T08:11:08;99938.55;;;9.72;77.19
49463;BME280;35357;51.722;0.500;2022-09-29T08:13:36;99945.32;;;9.79;76.57
49463;BME280;35357;51.722;0.500;2022-09-29T08:16:06;99946.65;;;9.16;79.51
49463;BME280;35357;51.722;0.500;2022-09-29T08:18:34;99948.47;;;9.79;77.67
49463;BME280;35357;51.722;0.500;2022-09-29T08:21:03;99951.25;;;9.92;78.11
49463;BME280;35357;51.722;0.500;2022-09-29T08:23:34;99954.46;;;10.04;79.55
49463;BME280;35357;51.722;0.500;2022-09-29T08:26:02;99957.19;;;10.10;78.25
49463;BME280;35357;51.722;0.500;2022-09-29T08:28:31;99957.42;;;9.59;80.02
49463;BME280;35357;51.722;0.500;2022-09-29T08:31:01;99962.73;;;9.34;82.57
49463;BME280;35357;51.722;0.500;2022-09-29T08:33:28;99965.25;;;9.98;82.40
49463;BME280;35357;51.722;0.500;2022-09-29T08:35:56;99968.33;;;9.67;81.76
49463;BME280;35357;51.722;0.500;2022-09-29T08:38:24;99976.98;;;10.52;79.11
49463;BME280;35357;51.722;0.500;2022-09-29T08:40:53;99982.95;;;10.57;78.65
49463;BME280;35357;51.722;0.500;2022-09-29T08:43:25;99986.25;;;9.95;79.65
49463;BME280;35357;51.722;0.500;2022-09-29T08:45:59;99992.27;;;10.40;80.65
49463;BME280;35357;51.722;0.500;2022-09-29T08:48:32;99995.31;;;10.13;82.24
49463;BME280;35357;51.722;0.500;2022-09-29T08:51:04;100002.66;;;10.60;81.83
49463;BME280;35357;51.722;0.500;2022-09-29T08:53:34;100008.67;;;10.64;81.78
49463;BME280;35357;51.722;0.500;2022-09-29T08:56:05;100005.84;;;10.70;80.50
49463;BME280;35357;51.722;0.500;2022-09-29T08:58:33;100009.63;;;11.21;80.44
49463;BME280;35357;51.722;0.500;2022-09-29T09:01:12;100011.83;;;10.94;78.96
49463;BME280;35357;51.722;0.500;2022-09-29T09:03:57;100018.76;;;11.27;79.33
49463;BME280;35357;51.722;0.500;2022-09-29T09:06:37;100018.82;;;11.27;79.64
49463;BME280;35357;51.722;0.500;2022-09-29T09:09:19;100021.42;;;11.35;79.30
49463;BME280;35357;51.722;0.500;2022-09-29T09:12:04;100028.64;;;10.96;80.42
49463;BME280;35357;51.722;0.500;2022-09-29T09:15:07;100031.58;;;11.78;77.63
49463;BME280;35357;51.722;0.500;2022-09-29T09:17:57;100033.40;;;11.47;77.72
49463;BME280;35357;51.722;0.500;2022-09-29T09:20:32;100031.98;;;11.34;78.30
49463;BME280;35357;51.722;0.500;2022-09-29T09:23:09;100034.04;;;11.80;76.62
49463;BME280;35357;51.722;0.500;2022-09-29T09:25:46;100035.32;;;11.57;77.16
49463;BME280;35357;51.722;0.500;2022-09-29T09:28:17;100040.53;;;12.26;75.69
49463;BME280;35357;51.722;0.500;2022-09-29T09:30:52;100044.83;;;12.35;75.70
49463;BME280;35357;51.722;0.500;2022-09-29T09:33:26;100050.52;;;12.49;75.74
49463;BME280;35357;51.722;0.500;2022-09-29T09:36:01;100051.05;;;11.70;77.06
49463;BME280;35357;51.722;0.500;2022-09-29T09:38:40;100053.08;;;12.80;75.38
49463;BME280;35357;51.722;0.500;2022-09-29T09:41:13;100056.51;;;12.74;75.12
49463;BME280;35357;51.722;0.500;2022-09-29T09:43:44;100059.69;;;12.33;74.25
49463;BME280;35357;51.722;0.500;2022-09-29T09:46:19;100060.33;;;12.21;75.05
49463;BME280;35357;51.722;0.500;2022-09-29T09:48:54;100062.65;;;12.68;74.38
49463;BME280;35357;51.722;0.500;2022-09-29T09:51:33;100062.44;;;12.70;72.93
49463;BME280;35357;51.722;0.500;2022-09-29T09:54:08;100067.76;;;13.08;73.81
49463;BME280;35357;51.722;0.500;2022-09-29T09:57:51;100072.68;;;12.72;73.66
49463;BME280;35357;51.722;0.500;2022-09-29T10:00:24;100083.74;;;12.16;74.96
49463;BME280;35357;51.722;0.500;2022-09-29T10:02:53;100086.41;;;12.31;75.94
49463;BME280;35357;51.722;0.500;2022-09-29T10:05:23;100087.99;;;12.24;77.72
49463;BME280;35357;51.722;0.500;2022-09-29T10:07:52;100089.44;;;12.49;77.25
49463;BME280;35357;51.722;0.500;2022-09-29T10:10:22;100089.69;;;11.70;79.56
49463;BME280;35357;51.722;0.500;2022-09-29T10:12:55;100090.70;;;12.45;77.61
49463;BME280;35357;51.722;0.500;2022-09-29T10:15:28;100092.82;;;12.34;75.95
49463;BME280;35357;51.722;0.500;2022-09-29T10:18:04;100091.62;;;12.70;77.41
49463;BME280;35357;51.722;0.500;2022-09-29T10:20:35;100092.74;;;12.58;77.63
49463;BME280;35357;51.722;0.500;2022-09-29T10:23:23;100092.92;;;12.35;77.99
49463;BME280;35357;51.722;0.500;2022-09-29T10:25:53;100094.40;;;12.70;76.04
49463;BME280;35357;51.722;0.500;2022-09-29T10:28:22;100099.06;;;12.97;75.51
49463;BME280;35357;51.722;0.500;2022-09-29T10:30:51;100100.76;;;13.02;74.67
49463;BME280;35357;51.722;0.500;2022-09-29T10:33:22;100104.50;;;13.37;74.47
49463;BME280;35357;51.722;0.500;2022-09-29T10:36:03;100101.87;;;13.23;74.01
49463;BME280;35357;51.722;0.500;2022-09-29T10:38:32;100102.97;;;13.28;72.53
49463;BME280;35357;51.722;0.500;2022-09-29T10:41:03;100109.24;;;13.32;72.42
49463;BME280;35357;51.722;0.500;2022-09-29T10:43:35;100117.22;;;12.86;73.00
49463;BME280;35357;51.722;0.500;2022-09-29T10:46:04;100117.27;;;12.75;73.27
49463;BME280;35357;51.722;0.500;2022-09-29T10:48:32;100115.83;;;13.26;72.26
49463;BME280;35357;51.722;0.500;2022-09-29T10:51:02;100116.07;;;13.74;70.36
49463;BME280;35357;51.722;0.500;2022-09-29T10:53:34;100116.36;;;13.68;69.95
49463;BME280;35357;51.722;0.500;2022-09-29T10:56:09;100119.05;;;13.02;71.30
49463;BME280;35357;51.722;0.500;2022-09-29T10:58:42;100121.08;;;13.93;68.92
49463;BME280;35357;51.722;0.500;2022-09-29T11:01:12;100121.04;;;13.37;68.40
49463;BME280;35357;51.722;0.500;2022-09-29T11:03:46;100119.99;;;13.84;69.15
49463;BME280;35357;51.722;0.500;2022-09-29T11:06:14;100129.55;;;14.25;66.17
49463;BME280;35357;51.722;0.500;2022-09-29T11:09:02;100131.46;;;13.68;66.36
49463;BME280;35357;51.722;0.500;2022-09-29T11:11:31;100132.94;;;14.17;64.18
49463;BME280;35357;51.722;0.500;2022-09-29T11:14:00;100134.54;;;14.14;65.04
49463;BME280;35357;51.722;0.500;2022-09-29T11:16:31;100135.99;;;13.99;65.33
49463;BME280;35357;51.722;0.500;2022-09-29T11:19:03;100141.78;;;13.73;62.83
49463;BME280;35357;51.722;0.500;2022-09-29T11:22:16;100141.56;;;14.27;62.48
49463;BME280;35357;51.722;0.500;2022-09-29T11:24:59;100148.45;;;13.39;65.67
49463;BME280;35357;51.722;0.500;2022-09-29T11:27:42;100154.07;;;14.00;63.92
49463;BME280;35357;51.722;0.500;2022-09-29T11:30:14;100153.58;;;14.65;63.12
49463;BME280;35357;51.722;0.500;2022-09-29T11:32:56;100154.67;;;14.81;61.49
49463;BME280;35357;51.722;0.500;2022-09-29T11:35:34;100158.27;;;14.18;62.40
49463;BME280;35357;51.722;0.500;2022-09-29T11:38:21;100156.72;;;14.28;62.26
49463;BME280;35357;51.722;0.500;2022-09-29T11:41:05;100160.31;;;13.47;59.90
49463;BME280;35357;51.722;0.500;2022-09-29T11:43:43;100166.15;;;14.17;59.53
49463;BME280;35357;51.722;0.500;2022-09-29T11:46:24;100169.50;;;14.17;58.47
49463;BME280;35357;51.722;0.500;2022-09-29T11:49:19;100167.75;;;14.17;56.59
49463;BME280;35357;51.722;0.500;2022-09-29T11:52:02;100165.25;;;14.71;57.93
49463;BME280;35357;51.722;0.500;2022-09-29T11:54:47;100170.34;;;14.91;58.60
49463;BME280;35357;51.722;0.500;2022-09-29T11:57:27;100175.07;;;15.35;56.12
49463;BME280;35357;51.722;0.500;2022-09-29T12:00:03;100178.22;;;14.63;57.71
49463;BME280;35357;51.722;0.500;2022-09-29T12:03:47;100175.81;;;15.61;54.21
49463;BME280;35357;51.722;0.500;2022-09-29T12:06:34;100178.12;;;16.12;50.69
49463;BME280;35357;51.722;0.500;2022-09-29T12:09:18;100179.32;;;13.38;55.51
49463;BME280;35357;51.722;0.500;2022-09-29T12:11:55;100177.75;;;15.32;52.22
49463;BME280;35357;51.722;0.500;2022-09-29T12:14:32;100177.99;;;15.10;52.61
49463;BME280;35357;51.722;0.500;2022-09-29T12:17:09;100183.03;;;15.39;49.01
49463;BME280;35357;51.722;0.500;2022-09-29T12:19:40;100179.97;;;15.41;48.83
49463;BME280;35357;51.722;0.500;2022-09-29T12:22:10;100180.47;;;14.89;48.62
49463;BME280;35357;51.722;0.500;2022-09-29T12:24:43;100183.11;;;15.53;47.58
49463;BME280;35357;51.722;0.500;2022-09-29T12:27:17;100185.83;;;15.59;48.30
49463;BME280;35357;51.722;0.500;2022-09-29T12:29:49;100182.30;;;14.41;52.76
49463;BME280;35357;51.722;0.500;2022-09-29T12:32:24;100182.92;;;15.08;49.49
49463;BME280;35357;51.722;0.500;2022-09-29T12:34:55;100180.53;;;15.65;48.99
49463;BME280;35357;51.722;0.500;2022-09-29T12:37:28;100181.52;;;14.81;50.22
49463;BME280;35357;51.722;0.500;2022-09-29T12:40:01;100184.40;;;15.40;50.21
49463;BME280;35357;51.722;0.500;2022-09-29T12:42:39;100187.31;;;14.75;48.94
49463;BME280;35357;51.722;0.500;2022-09-29T12:45:17;100187.46;;;14.65;47.96
49463;BME280;35357;51.722;0.500;2022-09-29T12:47:53;100187.88;;;14.85;47.09
49463;BME280;35357;51.722;0.500;2022-09-29T12:50:26;100188.86;;;15.37;45.54
49463;BME280;35357;51.722;0.500;2022-09-29T12:53:00;100188.87;;;15.82;44.96
49463;BME280;35357;51.722;0.500;2022-09-29T12:55:39;100185.27;;;14.72;44.81
49463;BME280;35357;51.722;0.500;2022-09-29T12:58:12;100186.65;;;15.73;45.87
49463;BME280;35357;51.722;0.500;2022-09-29T13:00:43;100188.26;;;15.51;45.96
49463;BME280;35357;51.722;0.500;2022-09-29T13:03:31;100189.21;;;15.83;45.74
49463;BME280;35357;51.722;0.500;2022-09-29T13:06:21;100187.58;;;16.54;43.77
49463;BME280;35357;51.722;0.500;2022-09-29T13:09:04;100183.57;;;17.39;43.04
49463;BME280;35357;51.722;0.500;2022-09-29T13:11:47;100186.71;;;17.19;43.41
49463;BME280;35357;51.722;0.500;2022-09-29T13:14:34;100195.72;;;16.47;42.43
49463;BME280;35357;51.722;0.500;2022-09-29T13:17:15;100192.36;;;15.93;40.33
49463;BME280;35357;51.722;0.500;2022-09-29T13:20:00;100192.79;;;15.42;41.87
49463;BME280;35357;51.722;0.500;2022-09-29T13:23:50;100195.64;;;15.94;41.74
49463;BME280;35357;51.722;0.500;2022-09-29T13:26:41;100195.82;;;15.94;42.22
49463;BME280;35357;51.722;0.500;2022-09-29T13:29:17;100192.16;;;15.17;43.13
49463;BME280;35357;51.722;0.500;2022-09-29T13:31:46;100192.29;;;15.95;43.48